sensor_id;sensor_type;location;lat;lon;timestamp;P1;durP1;ratioP1;P2;durP2;ratioP2
38909;SDS011;24676;51.360;12.354;2023-08-31T00:01:45;0.20;;;0.20;;
38909;SDS011;24676;51.360;12.354;2023-08-31T00:04:31;0.38;;;0.30;;
38909;SDS011;24676;51.360;12.354;2023-08-31T00:07:16;1.02;;;0.52;;
38909;SDS011;24676;51.360;12.354;2023-08-31T00:10:00;0.30;;;0.30;;
38909;SDS011;24676;51.360;12.354;2023-08-31T00:12:49;0.30;;;0.25;;
38909;SDS011;24676;51.360;12.354;2023-08-31T00:15:34;0.60;;;0.57;;
38909;SDS011;24676;51.360;12.354;2023-08-31T00:18:19;0.20;;;0.20;;
38909;SDS011;24676;51.360;12.354;2023-08-31T00:21:04;2.78;;;0.85;;
38909;SDS011;24676;51.360;12.354;2023-08-31T00:23:50;0.73;;;0.63;;
38909;SDS011;24676;51.360;12.354;2023-08-31T00:26:34;1.88;;;0.60;;
38909;SDS011;24676;51.360;12.354;2023-08-31T00:29:25;0.98;;;0.57;;
38909;SDS011;24676;51.360;12.354;2023-08-31T00:32:10;0.73;;;0.32;;
38909;SDS011;24676;51.360;12.354;2023-08-31T00:34:55;1.70;;;0.60;;
38909;SDS011;24676;51.360;12.354;2023-08-31T00:37:39;0.82;;;0.47;;
38909;SDS011;24676;51.360;12.354;2023-08-31T00:40:23;0.28;;;0.28;;
38909;SDS011;24676;51.360;12.354;2023-08-31T00:43:08;1.35;;;0.52;;
38909;SDS011;24676;51.360;12.354;2023-08-31T00:45:54;0.47;;;0.30;;
38909;SDS011;24676;51.360;12.354;2023-08-31T00:48:41;0.40;;;0.40;;
38909;SDS011;24676;51.360;12.354;2023-08-31T00:51:25;0.73;;;0.70;;
38909;SDS011;24676;51.360;12.354;2023-08-31T00:54:10;0.43;;;0.38;;
38909;SDS011;24676;51.360;12.354;2023-08-31T00:56:54;0.70;;;0.70;;
38909;SDS011;24676;51.360;12.354;2023-08-31T00:59:38;0.55;;;0.55;;
38909;SDS011;24676;51.360;12.354;2023-08-31T01:02:24;1.05;;;0.28;;
38909;SDS011;24676;51.360;12.354;2023-08-31T01:09:07;1.00;;;0.47;;
38909;SDS011;24676;51.360;12.354;2023-08-31T01:11:31;0.30;;;0.30;;
38909;SDS011;24676;51.360;12.354;2023-08-31T01:14:32;4.85;;;0.60;;
38909;SDS011;24676;51.360;12.354;2023-08-31T01:17:22;2.00;;;0.88;;
38909;SDS011;24676;51.360;12.354;2023-08-31T01:20:07;1.95;;;0.73;;
38909;SDS011;24676;51.360;12.354;2023-08-31T01:22:58;0.52;;;0.38;;
38909;SDS011;24676;51.360;12.354;2023-08-31T01:26:04;0.57;;;0.55;;
38909;SDS011;24676;51.360;12.354;2023-08-31T01:28:49;1.60;;;0.90;;
38909;SDS011;24676;51.360;12.354;2023-08-31T01:31:41;1.20;;;0.50;;
38909;SDS011;24676;51.360;12.354;2023-08-31T01:34:26;2.17;;;0.38;;
38909;SDS011;24676;51.360;12.354;2023-08-31T01:37:12;0.68;;;0.30;;
38909;SDS011;24676;51.360;12.354;2023-08-31T01:40:02;0.28;;;0.22;;
38909;SDS011;24676;51.360;12.354;2023-08-31T01:43:09;1.85;;;0.40;;
38909;SDS011;24676;51.360;12.354;2023-08-31T01:45:55;1.50;;;0.60;;
38909;SDS011;24676;51.360;12.354;2023-08-31T01:48:40;0.60;;;0.50;;
38909;SDS011;24676;51.360;12.354;2023-08-31T01:51:24;2.92;;;0.77;;
38909;SDS011;24676;51.360;12.354;2023-08-31T01:54:08;0.50;;;0.50;;
38909;SDS011;24676;51.360;12.354;2023-08-31T01:56:53;0.73;;;0.63;;
38909;SDS011;24676;51.360;12.354;2023-08-31T01:59:37;1.27;;;0.50;;
38909;SDS011;24676;51.360;12.354;2023-08-31T02:02:22;0.22;;;0.20;;
38909;SDS011;24676;51.360;12.354;2023-08-31T02:05:06;0.70;;;0.68;;
38909;SDS011;24676;51.360;12.354;2023-08-31T02:07:50;0.77;;;0.77;;
38909;SDS011;24676;51.360;12.354;2023-08-31T02:10:34;0.52;;;0.30;;
38909;SDS011;24676;51.360;12.354;2023-08-31T02:13:18;0.55;;;0.30;;
38909;SDS011;24676;51.360;12.354;2023-08-31T02:16:03;0.73;;;0.35;;
38909;SDS011;24676;51.360;12.354;2023-08-31T02:18:47;0.17;;;0.17;;
38909;SDS011;24676;51.360;12.354;2023-08-31T02:21:31;0.25;;;0.25;;
38909;SDS011;24676;51.360;12.354;2023-08-31T02:24:15;1.02;;;0.90;;
38909;SDS011;24676;51.360;12.354;2023-08-31T02:27:00;0.47;;;0.45;;
38909;SDS011;24676;51.360;12.354;2023-08-31T02:29:44;0.50;;;0.50;;
38909;SDS011;24676;51.360;12.354;2023-08-31T02:32:28;0.90;;;0.60;;
38909;SDS011;24676;51.360;12.354;2023-08-31T02:35:12;0.65;;;0.50;;
38909;SDS011;24676;51.360;12.354;2023-08-31T02:37:56;0.55;;;0.40;;
38909;SDS011;24676;51.360;12.354;2023-08-31T02:40:41;1.02;;;0.55;;
38909;SDS011;24676;51.360;12.354;2023-08-31T02:43:25;0.40;;;0.40;;
38909;SDS011;24676;51.360;12.354;2023-08-31T02:46:10;0.40;;;0.40;;
38909;SDS011;24676;51.360;12.354;2023-08-31T02:48:54;0.95;;;0.57;;
38909;SDS011;24676;51.360;12.354;2023-08-31T02:51:39;1.70;;;0.70;;
38909;SDS011;24676;51.360;12.354;2023-08-31T02:54:24;1.10;;;0.80;;
38909;SDS011;24676;51.360;12.354;2023-08-31T02:57:08;0.85;;;0.77;;
38909;SDS011;24676;51.360;12.354;2023-08-31T02:59:52;0.98;;;0.70;;
38909;SDS011;24676;51.360;12.354;2023-08-31T03:02:37;0.85;;;0.85;;
38909;SDS011;24676;51.360;12.354;2023-08-31T03:05:21;1.92;;;0.77;;
38909;SDS011;24676;51.360;12.354;2023-08-31T03:08:05;1.33;;;0.55;;
38909;SDS011;24676;51.360;12.354;2023-08-31T03:10:49;2.60;;;0.88;;
38909;SDS011;24676;51.360;12.354;2023-08-31T03:13:33;0.85;;;0.65;;
38909;SDS011;24676;51.360;12.354;2023-08-31T03:16:18;0.70;;;0.70;;
38909;SDS011;24676;51.360;12.354;2023-08-31T03:19:02;1.55;;;1.08;;
38909;SDS011;24676;51.360;12.354;2023-08-31T03:21:46;0.73;;;0.73;;
38909;SDS011;24676;51.360;12.354;2023-08-31T03:24:31;0.90;;;0.88;;
38909;SDS011;24676;51.360;12.354;2023-08-31T03:27:16;3.83;;;1.20;;
38909;SDS011;24676;51.360;12.354;2023-08-31T03:30:01;0.85;;;0.85;;
38909;SDS011;24676;51.360;12.354;2023-08-31T03:32:46;2.67;;;0.93;;
38909;SDS011;24676;51.360;12.354;2023-08-31T03:35:31;1.48;;;1.02;;
38909;SDS011;24676;51.360;12.354;2023-08-31T03:38:16;0.98;;;0.90;;
38909;SDS011;24676;51.360;12.354;2023-08-31T03:41:00;6.80;;;1.85;;
38909;SDS011;24676;51.360;12.354;2023-08-31T03:43:44;1.55;;;1.20;;
38909;SDS011;24676;51.360;12.354;2023-08-31T03:46:28;4.03;;;2.47;;
38909;SDS011;24676;51.360;12.354;2023-08-31T03:49:12;2.25;;;1.13;;
38909;SDS011;24676;51.360;12.354;2023-08-31T03:51:56;1.63;;;1.52;;
38909;SDS011;24676;51.360;12.354;2023-08-31T03:54:40;2.17;;;1.20;;
38909;SDS011;24676;51.360;12.354;2023-08-31T03:57:24;2.20;;;1.48;;
38909;SDS011;24676;51.360;12.354;2023-08-31T04:00:09;1.45;;;1.35;;
38909;SDS011;24676;51.360;12.354;2023-08-31T04:02:53;1.92;;;1.30;;
38909;SDS011;24676;51.360;12.354;2023-08-31T04:05:37;4.22;;;2.33;;
38909;SDS011;24676;51.360;12.354;2023-08-31T04:08:22;3.72;;;1.98;;
38909;SDS011;24676;51.360;12.354;2023-08-31T04:11:06;4.22;;;2.72;;
38909;SDS011;24676;51.360;12.354;2023-08-31T04:13:50;2.53;;;2.28;;
38909;SDS011;24676;51.360;12.354;2023-08-31T04:16:34;3.33;;;2.17;;
38909;SDS011;24676;51.360;12.354;2023-08-31T04:19:18;2.25;;;2.05;;
38909;SDS011;24676;51.360;12.354;2023-08-31T04:22:02;2.13;;;1.92;;
38909;SDS011;24676;51.360;12.354;2023-08-31T04:24:48;3.88;;;2.30;;
38909;SDS011;24676;51.360;12.354;2023-08-31T04:27:32;2.90;;;2.20;;
38909;SDS011;24676;51.360;12.354;2023-08-31T04:30:17;12.38;;;2.42;;
38909;SDS011;24676;51.360;12.354;2023-08-31T04:33:01;6.50;;;2.80;;
38909;SDS011;24676;51.360;12.354;2023-08-31T04:35:48;3.65;;;2.50;;
38909;SDS011;24676;51.360;12.354;2023-08-31T04:38:37;2.88;;;2.28;;
38909;SDS011;24676;51.360;12.354;2023-08-31T04:41:21;3.22;;;2.28;;
38909;SDS011;24676;51.360;12.354;2023-08-31T04:44:06;3.13;;;2.15;;
38909;SDS011;24676;51.360;12.354;2023-08-31T04:46:50;3.25;;;2.53;;
38909;SDS011;24676;51.360;12.354;2023-08-31T04:49:34;5.43;;;3.00;;
38909;SDS011;24676;51.360;12.354;2023-08-31T04:52:18;8.23;;;2.95;;
38909;SDS011;24676;51.360;12.354;2023-08-31T04:55:02;4.00;;;2.83;;
38909;SDS011;24676;51.360;12.354;2023-08-31T04:57:51;3.67;;;2.38;;
38909;SDS011;24676;51.360;12.354;2023-08-31T05:00:35;3.92;;;2.78;;
38909;SDS011;24676;51.360;12.354;2023-08-31T05:03:19;5.13;;;3.42;;
38909;SDS011;24676;51.360;12.354;2023-08-31T05:06:03;4.57;;;3.17;;
38909;SDS011;24676;51.360;12.354;2023-08-31T05:08:48;3.55;;;3.08;;
38909;SDS011;24676;51.360;12.354;2023-08-31T05:11:32;6.53;;;3.15;;
38909;SDS011;24676;51.360;12.354;2023-08-31T05:14:16;4.82;;;4.28;;
38909;SDS011;24676;51.360;12.354;2023-08-31T05:17:01;5.95;;;2.50;;
38909;SDS011;24676;51.360;12.354;2023-08-31T05:19:45;9.18;;;3.10;;
38909;SDS011;24676;51.360;12.354;2023-08-31T05:22:30;5.60;;;3.08;;
38909;SDS011;24676;51.360;12.354;2023-08-31T05:25:14;4.63;;;2.33;;
38909;SDS011;24676;51.360;12.354;2023-08-31T05:27:58;4.00;;;2.33;;
38909;SDS011;24676;51.360;12.354;2023-08-31T05:30:47;4.05;;;3.17;;
38909;SDS011;24676;51.360;12.354;2023-08-31T05:33:33;4.47;;;3.20;;
38909;SDS011;24676;51.360;12.354;2023-08-31T05:36:17;5.00;;;2.72;;
38909;SDS011;24676;51.360;12.354;2023-08-31T05:39:02;3.45;;;2.85;;
38909;SDS011;24676;51.360;12.354;2023-08-31T05:41:46;7.93;;;3.70;;
38909;SDS011;24676;51.360;12.354;2023-08-31T05:44:30;4.10;;;3.72;;
38909;SDS011;24676;51.360;12.354;2023-08-31T05:47:14;5.00;;;2.58;;
38909;SDS011;24676;51.360;12.354;2023-08-31T05:49:59;3.50;;;3.10;;
38909;SDS011;24676;51.360;12.354;2023-08-31T05:52:43;5.43;;;3.22;;
38909;SDS011;24676;51.360;12.354;2023-08-31T05:55:27;4.00;;;2.63;;
38909;SDS011;24676;51.360;12.354;2023-08-31T05:58:12;3.95;;;2.58;;
38909;SDS011;24676;51.360;12.354;2023-08-31T06:00:55;4.97;;;2.03;;
38909;SDS011;24676;51.360;12.354;2023-08-31T06:03:40;3.20;;;2.50;;
38909;SDS011;24676;51.360;12.354;2023-08-31T06:06:25;3.53;;;2.97;;
38909;SDS011;24676;51.360;12.354;2023-08-31T06:09:09;5.95;;;2.58;;
38909;SDS011;24676;51.360;12.354;2023-08-31T06:11:54;3.07;;;2.47;;
38909;SDS011;24676;51.360;12.354;2023-08-31T06:17:22;6.85;;;2.42;;
38909;SDS011;24676;51.360;12.354;2023-08-31T06:20:06;5.10;;;1.90;;
38909;SDS011;24676;51.360;12.354;2023-08-31T06:22:51;3.20;;;2.70;;
38909;SDS011;24676;51.360;12.354;2023-08-31T06:25:36;4.43;;;2.38;;
38909;SDS011;24676;51.360;12.354;2023-08-31T06:28:20;9.85;;;2.38;;
38909;SDS011;24676;51.360;12.354;2023-08-31T06:31:05;2.85;;;2.17;;
38909;SDS011;24676;51.360;12.354;2023-08-31T06:33:49;3.55;;;2.50;;
38909;SDS011;24676;51.360;12.354;2023-08-31T06:36:33;2.75;;;2.47;;
38909;SDS011;24676;51.360;12.354;2023-08-31T06:39:17;5.35;;;3.22;;
38909;SDS011;24676;51.360;12.354;2023-08-31T06:42:02;2.50;;;2.05;;
38909;SDS011;24676;51.360;12.354;2023-08-31T06:44:46;4.68;;;1.90;;
38909;SDS011;24676;51.360;12.354;2023-08-31T06:47:31;3.45;;;2.40;;
38909;SDS011;24676;51.360;12.354;2023-08-31T06:50:15;4.35;;;3.45;;
38909;SDS011;24676;51.360;12.354;2023-08-31T06:52:59;3.22;;;2.35;;
38909;SDS011;24676;51.360;12.354;2023-08-31T06:55:44;2.60;;;1.80;;
38909;SDS011;24676;51.360;12.354;2023-08-31T06:58:28;3.20;;;2.22;;
38909;SDS011;24676;51.360;12.354;2023-08-31T07:01:13;5.07;;;2.17;;
38909;SDS011;24676;51.360;12.354;2023-08-31T07:09:26;3.78;;;2.13;;
38909;SDS011;24676;51.360;12.354;2023-08-31T07:12:10;2.40;;;2.20;;
38909;SDS011;24676;51.360;12.354;2023-08-31T07:14:54;4.25;;;2.13;;
38909;SDS011;24676;51.360;12.354;2023-08-31T07:23:06;3.60;;;2.00;;
38909;SDS011;24676;51.360;12.354;2023-08-31T07:28:34;6.03;;;2.03;;
38909;SDS011;24676;51.360;12.354;2023-08-31T07:34:03;2.00;;;1.67;;
38909;SDS011;24676;51.360;12.354;2023-08-31T07:36:48;4.07;;;2.47;;
38909;SDS011;24676;51.360;12.354;2023-08-31T07:39:32;2.35;;;1.60;;
38909;SDS011;24676;51.360;12.354;2023-08-31T07:42:16;6.32;;;2.55;;
38909;SDS011;24676;51.360;12.354;2023-08-31T07:45:00;2.28;;;2.08;;
38909;SDS011;24676;51.360;12.354;2023-08-31T07:47:44;2.45;;;2.25;;
38909;SDS011;24676;51.360;12.354;2023-08-31T07:50:28;3.92;;;2.60;;
38909;SDS011;24676;51.360;12.354;2023-08-31T07:53:12;5.20;;;2.80;;
38909;SDS011;24676;51.360;12.354;2023-08-31T07:55:56;3.80;;;2.47;;
38909;SDS011;24676;51.360;12.354;2023-08-31T07:58:41;3.45;;;2.30;;
38909;SDS011;24676;51.360;12.354;2023-08-31T08:01:26;2.58;;;2.22;;
38909;SDS011;24676;51.360;12.354;2023-08-31T08:04:11;4.38;;;3.50;;
38909;SDS011;24676;51.360;12.354;2023-08-31T08:06:55;2.15;;;1.65;;
38909;SDS011;24676;51.360;12.354;2023-08-31T08:09:39;6.88;;;2.38;;
38909;SDS011;24676;51.360;12.354;2023-08-31T08:12:24;5.90;;;2.03;;
38909;SDS011;24676;51.360;12.354;2023-08-31T08:15:08;4.83;;;2.67;;
38909;SDS011;24676;51.360;12.354;2023-08-31T08:20:37;9.77;;;3.35;;
38909;SDS011;24676;51.360;12.354;2023-08-31T08:23:21;3.40;;;3.10;;
38909;SDS011;24676;51.360;12.354;2023-08-31T08:26:07;2.78;;;2.45;;
38909;SDS011;24676;51.360;12.354;2023-08-31T09:43:25;2.17;;;1.40;;
38909;SDS011;24676;51.360;12.354;2023-08-31T09:46:09;1.83;;;1.17;;
38909;SDS011;24676;51.360;12.354;2023-08-31T09:48:57;1.80;;;1.33;;
38909;SDS011;24676;51.360;12.354;2023-08-31T09:51:44;3.60;;;0.85;;
38909;SDS011;24676;51.360;12.354;2023-08-31T09:54:29;1.23;;;0.85;;
38909;SDS011;24676;51.360;12.354;2023-08-31T09:57:16;0.68;;;0.60;;
38909;SDS011;24676;51.360;12.354;2023-08-31T10:00:01;0.70;;;0.70;;
38909;SDS011;24676;51.360;12.354;2023-08-31T10:02:46;1.35;;;0.77;;
38909;SDS011;24676;51.360;12.354;2023-08-31T10:05:31;1.02;;;0.75;;
38909;SDS011;24676;51.360;12.354;2023-08-31T10:08:16;1.80;;;1.33;;
38909;SDS011;24676;51.360;12.354;2023-08-31T10:11:01;0.93;;;0.93;;
38909;SDS011;24676;51.360;12.354;2023-08-31T10:13:49;2.10;;;0.98;;
38909;SDS011;24676;51.360;12.354;2023-08-31T10:19:18;2.67;;;1.20;;
38909;SDS011;24676;51.360;12.354;2023-08-31T10:22:02;1.75;;;1.20;;
38909;SDS011;24676;51.360;12.354;2023-08-31T10:25:00;2.47;;;1.95;;
38909;SDS011;24676;51.360;12.354;2023-08-31T10:27:47;3.75;;;1.85;;
38909;SDS011;24676;51.360;12.354;2023-08-31T10:30:35;1.10;;;1.00;;
38909;SDS011;24676;51.360;12.354;2023-08-31T10:33:19;3.97;;;1.20;;
38909;SDS011;24676;51.360;12.354;2023-08-31T10:36:09;1.90;;;1.17;;
38909;SDS011;24676;51.360;12.354;2023-08-31T10:38:59;4.40;;;0.90;;
38909;SDS011;24676;51.360;12.354;2023-08-31T10:41:52;4.30;;;1.30;;
38909;SDS011;24676;51.360;12.354;2023-08-31T10:44:37;3.22;;;1.55;;
38909;SDS011;24676;51.360;12.354;2023-08-31T10:47:36;2.55;;;1.40;;
38909;SDS011;24676;51.360;12.354;2023-08-31T10:50:22;1.52;;;1.35;;
38909;SDS011;24676;51.360;12.354;2023-08-31T10:53:08;3.17;;;1.50;;
38909;SDS011;24676;51.360;12.354;2023-08-31T10:55:53;0.80;;;0.80;;
38909;SDS011;24676;51.360;12.354;2023-08-31T10:58:37;1.73;;;1.17;;
38909;SDS011;24676;51.360;12.354;2023-08-31T11:04:53;1.13;;;1.02;;
38909;SDS011;24676;51.360;12.354;2023-08-31T11:07:39;1.45;;;1.10;;
38909;SDS011;24676;51.360;12.354;2023-08-31T11:10:28;8.52;;;1.17;;
38909;SDS011;24676;51.360;12.354;2023-08-31T11:13:16;2.28;;;0.93;;
38909;SDS011;24676;51.360;12.354;2023-08-31T11:16:05;2.15;;;1.08;;
38909;SDS011;24676;51.360;12.354;2023-08-31T11:18:50;3.63;;;1.10;;
38909;SDS011;24676;51.360;12.354;2023-08-31T11:21:36;0.90;;;0.80;;
38909;SDS011;24676;51.360;12.354;2023-08-31T11:24:21;0.70;;;0.68;;
38909;SDS011;24676;51.360;12.354;2023-08-31T11:27:09;6.22;;;0.90;;
38909;SDS011;24676;51.360;12.354;2023-08-31T11:35:36;1.57;;;0.77;;
38909;SDS011;24676;51.360;12.354;2023-08-31T11:38:24;1.60;;;1.10;;
38909;SDS011;24676;51.360;12.354;2023-08-31T11:41:08;1.88;;;1.08;;
38909;SDS011;24676;51.360;12.354;2023-08-31T11:43:52;2.60;;;0.80;;
38909;SDS011;24676;51.360;12.354;2023-08-31T11:46:37;0.80;;;0.77;;
38909;SDS011;24676;51.360;12.354;2023-08-31T11:49:22;1.63;;;0.60;;
38909;SDS011;24676;51.360;12.354;2023-08-31T11:52:11;2.03;;;1.03;;
38909;SDS011;24676;51.360;12.354;2023-08-31T11:54:56;1.92;;;0.60;;
38909;SDS011;24676;51.360;12.354;2023-08-31T11:57:40;0.90;;;0.75;;
38909;SDS011;24676;51.360;12.354;2023-08-31T12:00:31;6.72;;;0.65;;
38909;SDS011;24676;51.360;12.354;2023-08-31T12:03:14;0.98;;;0.50;;
38909;SDS011;24676;51.360;12.354;2023-08-31T12:05:59;2.83;;;0.53;;
38909;SDS011;24676;51.360;12.354;2023-08-31T12:08:45;9.35;;;0.70;;
38909;SDS011;24676;51.360;12.354;2023-08-31T12:11:29;1.88;;;1.02;;
38909;SDS011;24676;51.360;12.354;2023-08-31T12:28:04;0.90;;;0.67;;
38909;SDS011;24676;51.360;12.354;2023-08-31T12:30:49;4.70;;;0.90;;
38909;SDS011;24676;51.360;12.354;2023-08-31T12:33:34;0.50;;;0.50;;
38909;SDS011;24676;51.360;12.354;2023-08-31T12:36:19;2.08;;;0.65;;
38909;SDS011;24676;51.360;12.354;2023-08-31T12:39:03;1.35;;;0.63;;
38909;SDS011;24676;51.360;12.354;2023-08-31T12:41:50;0.65;;;0.60;;
38909;SDS011;24676;51.360;12.354;2023-08-31T12:44:34;2.75;;;0.57;;
38909;SDS011;24676;51.360;12.354;2023-08-31T12:47:18;0.65;;;0.60;;
38909;SDS011;24676;51.360;12.354;2023-08-31T12:52:48;0.50;;;0.50;;
38909;SDS011;24676;51.360;12.354;2023-08-31T12:55:32;0.80;;;0.52;;
38909;SDS011;24676;51.360;12.354;2023-08-31T12:58:16;1.67;;;0.80;;
38909;SDS011;24676;51.360;12.354;2023-08-31T13:01:00;2.00;;;1.20;;
38909;SDS011;24676;51.360;12.354;2023-08-31T13:06:29;1.83;;;0.63;;
38909;SDS011;24676;51.360;12.354;2023-08-31T14:34:15;3.13;;;1.00;;
38909;SDS011;24676;51.360;12.354;2023-08-31T14:36:59;0.80;;;0.50;;
38909;SDS011;24676;51.360;12.354;2023-08-31T14:39:44;3.22;;;0.40;;
38909;SDS011;24676;51.360;12.354;2023-08-31T14:42:29;0.50;;;0.47;;
38909;SDS011;24676;51.360;12.354;2023-08-31T14:47:57;0.80;;;0.60;;
38909;SDS011;24676;51.360;12.354;2023-08-31T14:50:43;1.55;;;0.35;;
38909;SDS011;24676;51.360;12.354;2023-08-31T14:53:28;0.50;;;0.50;;
38909;SDS011;24676;51.360;12.354;2023-08-31T14:56:12;4.30;;;0.40;;
38909;SDS011;24676;51.360;12.354;2023-08-31T14:58:56;0.40;;;0.40;;
38909;SDS011;24676;51.360;12.354;2023-08-31T15:01:41;0.98;;;0.68;;
38909;SDS011;24676;51.360;12.354;2023-08-31T15:23:35;0.80;;;0.50;;
38909;SDS011;24676;51.360;12.354;2023-08-31T15:26:19;0.98;;;0.75;;
38909;SDS011;24676;51.360;12.354;2023-08-31T15:29:03;0.45;;;0.43;;
38909;SDS011;24676;51.360;12.354;2023-08-31T15:31:48;1.80;;;0.80;;
38909;SDS011;24676;51.360;12.354;2023-08-31T15:34:32;2.30;;;1.70;;
38909;SDS011;24676;51.360;12.354;2023-08-31T15:37:17;1.83;;;0.60;;
38909;SDS011;24676;51.360;12.354;2023-08-31T15:40:02;1.70;;;1.23;;
38909;SDS011;24676;51.360;12.354;2023-08-31T15:42:46;1.88;;;1.00;;
38909;SDS011;24676;51.360;12.354;2023-08-31T15:45:31;0.55;;;0.55;;
38909;SDS011;24676;51.360;12.354;2023-08-31T15:48:15;2.95;;;0.65;;
38909;SDS011;24676;51.360;12.354;2023-08-31T15:51:00;3.60;;;0.43;;
38909;SDS011;24676;51.360;12.354;2023-08-31T15:53:44;1.77;;;1.58;;
38909;SDS011;24676;51.360;12.354;2023-08-31T15:56:29;2.00;;;1.10;;
38909;SDS011;24676;51.360;12.354;2023-08-31T15:59:16;2.08;;;0.60;;
38909;SDS011;24676;51.360;12.354;2023-08-31T16:02:00;15.07;;;1.02;;
38909;SDS011;24676;51.360;12.354;2023-08-31T16:04:45;0.77;;;0.60;;
38909;SDS011;24676;51.360;12.354;2023-08-31T16:07:32;0.70;;;0.57;;
38909;SDS011;24676;51.360;12.354;2023-08-31T16:10:17;1.48;;;0.50;;
38909;SDS011;24676;51.360;12.354;2023-08-31T16:13:02;1.17;;;0.93;;
38909;SDS011;24676;51.360;12.354;2023-08-31T16:15:47;2.25;;;0.70;;
38909;SDS011;24676;51.360;12.354;2023-08-31T16:18:33;1.17;;;0.93;;
38909;SDS011;24676;51.360;12.354;2023-08-31T16:21:17;3.95;;;0.50;;
38909;SDS011;24676;51.360;12.354;2023-08-31T16:24:01;4.80;;;0.77;;
38909;SDS011;24676;51.360;12.354;2023-08-31T16:26:46;1.30;;;0.45;;
38909;SDS011;24676;51.360;12.354;2023-08-31T16:29:30;1.05;;;0.68;;
38909;SDS011;24676;51.360;12.354;2023-08-31T16:32:14;0.68;;;0.35;;
38909;SDS011;24676;51.360;12.354;2023-08-31T16:34:58;1.05;;;0.70;;
38909;SDS011;24676;51.360;12.354;2023-08-31T16:37:43;0.63;;;0.47;;
38909;SDS011;24676;51.360;12.354;2023-08-31T16:40:27;3.35;;;0.90;;
38909;SDS011;24676;51.360;12.354;2023-08-31T16:43:11;1.48;;;0.85;;
38909;SDS011;24676;51.360;12.354;2023-08-31T16:45:59;0.88;;;0.65;;
38909;SDS011;24676;51.360;12.354;2023-08-31T16:48:45;1.65;;;0.80;;
38909;SDS011;24676;51.360;12.354;2023-08-31T16:51:29;2.72;;;0.80;;
38909;SDS011;24676;51.360;12.354;2023-08-31T16:54:14;0.77;;;0.60;;
38909;SDS011;24676;51.360;12.354;2023-08-31T16:56:58;0.70;;;0.70;;
38909;SDS011;24676;51.360;12.354;2023-08-31T17:10:40;1.50;;;0.90;;
38909;SDS011;24676;51.360;12.354;2023-08-31T17:35:19;1.17;;;0.77;;
38909;SDS011;24676;51.360;12.354;2023-08-31T17:38:04;1.70;;;1.48;;
38909;SDS011;24676;51.360;12.354;2023-08-31T17:40:48;5.22;;;1.65;;
38909;SDS011;24676;51.360;12.354;2023-08-31T17:43:32;1.67;;;1.23;;
38909;SDS011;24676;51.360;12.354;2023-08-31T18:13:42;2.60;;;0.80;;
38909;SDS011;24676;51.360;12.354;2023-08-31T18:19:11;3.60;;;1.50;;
38909;SDS011;24676;51.360;12.354;2023-08-31T18:24:40;3.35;;;1.45;;
38909;SDS011;24676;51.360;12.354;2023-08-31T18:27:25;3.65;;;1.35;;
38909;SDS011;24676;51.360;12.354;2023-08-31T18:30:09;1.65;;;1.42;;
38909;SDS011;24676;51.360;12.354;2023-08-31T18:32:53;3.22;;;1.40;;
38909;SDS011;24676;51.360;12.354;2023-08-31T18:35:37;3.00;;;0.90;;
38909;SDS011;24676;51.360;12.354;2023-08-31T18:38:23;1.27;;;1.13;;
38909;SDS011;24676;51.360;12.354;2023-08-31T18:41:08;1.97;;;1.33;;
38909;SDS011;24676;51.360;12.354;2023-08-31T18:43:53;1.40;;;1.20;;
38909;SDS011;24676;51.360;12.354;2023-08-31T18:46:37;3.30;;;1.50;;
38909;SDS011;24676;51.360;12.354;2023-08-31T18:49:21;1.25;;;1.15;;
38909;SDS011;24676;51.360;12.354;2023-08-31T18:52:05;1.10;;;1.00;;
38909;SDS011;24676;51.360;12.354;2023-08-31T18:54:50;1.15;;;1.00;;
38909;SDS011;24676;51.360;12.354;2023-08-31T18:57:34;1.45;;;1.35;;
38909;SDS011;24676;51.360;12.354;2023-08-31T19:00:18;1.70;;;1.60;;
38909;SDS011;24676;51.360;12.354;2023-08-31T19:03:03;1.10;;;1.10;;
38909;SDS011;24676;51.360;12.354;2023-08-31T20:03:22;0.82;;;0.82;;
38909;SDS011;24676;51.360;12.354;2023-08-31T20:06:07;0.38;;;0.38;;
38909;SDS011;24676;51.360;12.354;2023-08-31T20:08:51;0.55;;;0.55;;
38909;SDS011;24676;51.360;12.354;2023-08-31T20:11:35;0.80;;;0.77;;
38909;SDS011;24676;51.360;12.354;2023-08-31T20:14:19;0.65;;;0.60;;
38909;SDS011;24676;51.360;12.354;2023-08-31T20:17:04;2.47;;;0.40;;
38909;SDS011;24676;51.360;12.354;2023-08-31T20:19:48;0.70;;;0.70;;
38909;SDS011;24676;51.360;12.354;2023-08-31T20:22:32;0.40;;;0.40;;
38909;SDS011;24676;51.360;12.354;2023-08-31T20:25:17;1.70;;;0.98;;
38909;SDS011;24676;51.360;12.354;2023-08-31T20:28:02;0.82;;;0.57;;
38909;SDS011;24676;51.360;12.354;2023-08-31T20:30:46;0.70;;;0.70;;
38909;SDS011;24676;51.360;12.354;2023-08-31T20:33:31;2.58;;;0.50;;
38909;SDS011;24676;51.360;12.354;2023-08-31T20:36:15;0.82;;;0.55;;
38909;SDS011;24676;51.360;12.354;2023-08-31T20:39:00;0.73;;;0.70;;
38909;SDS011;24676;51.360;12.354;2023-08-31T20:41:50;0.95;;;0.93;;
38909;SDS011;24676;51.360;12.354;2023-08-31T20:44:36;3.20;;;0.98;;
38909;SDS011;24676;51.360;12.354;2023-08-31T20:47:21;1.10;;;1.00;;
38909;SDS011;24676;51.360;12.354;2023-08-31T20:50:06;0.80;;;0.73;;
38909;SDS011;24676;51.360;12.354;2023-08-31T20:52:51;3.50;;;1.13;;
38909;SDS011;24676;51.360;12.354;2023-08-31T20:55:36;0.68;;;0.68;;
38909;SDS011;24676;51.360;12.354;2023-08-31T20:58:21;0.95;;;0.95;;
38909;SDS011;24676;51.360;12.354;2023-08-31T21:01:09;1.00;;;0.88;;
38909;SDS011;24676;51.360;12.354;2023-08-31T21:03:57;1.27;;;1.00;;
38909;SDS011;24676;51.360;12.354;2023-08-31T21:06:42;2.13;;;1.20;;
38909;SDS011;24676;51.360;12.354;2023-08-31T21:09:28;0.73;;;0.70;;
38909;SDS011;24676;51.360;12.354;2023-08-31T21:12:13;1.02;;;1.02;;
38909;SDS011;24676;51.360;12.354;2023-08-31T21:14:58;1.10;;;1.00;;
38909;SDS011;24676;51.360;12.354;2023-08-31T21:17:43;0.75;;;0.60;;
38909;SDS011;24676;51.360;12.354;2023-08-31T21:20:27;1.13;;;0.82;;
38909;SDS011;24676;51.360;12.354;2023-08-31T21:23:12;1.02;;;0.93;;
38909;SDS011;24676;51.360;12.354;2023-08-31T21:26:00;1.27;;;1.15;;
38909;SDS011;24676;51.360;12.354;2023-08-31T21:28:45;1.48;;;1.00;;
38909;SDS011;24676;51.360;12.354;2023-08-31T21:31:30;3.22;;;1.35;;
38909;SDS011;24676;51.360;12.354;2023-08-31T21:34:14;0.82;;;0.50;;
38909;SDS011;24676;51.360;12.354;2023-08-31T21:36:59;1.65;;;0.90;;
38909;SDS011;24676;51.360;12.354;2023-08-31T21:39:43;1.15;;;1.05;;
38909;SDS011;24676;51.360;12.354;2023-08-31T21:42:27;1.00;;;0.85;;
38909;SDS011;24676;51.360;12.354;2023-08-31T21:45:12;0.63;;;0.63;;
38909;SDS011;24676;51.360;12.354;2023-08-31T21:47:56;0.45;;;0.38;;
38909;SDS011;24676;51.360;12.354;2023-08-31T21:50:41;0.80;;;0.80;;
38909;SDS011;24676;51.360;12.354;2023-08-31T21:53:25;0.95;;;0.80;;
38909;SDS011;24676;51.360;12.354;2023-08-31T21:56:09;1.27;;;0.80;;
38909;SDS011;24676;51.360;12.354;2023-08-31T21:58:54;1.10;;;1.00;;
38909;SDS011;24676;51.360;12.354;2023-08-31T22:01:38;1.45;;;0.90;;
38909;SDS011;24676;51.360;12.354;2023-08-31T22:04:23;3.22;;;1.38;;
38909;SDS011;24676;51.360;12.354;2023-08-31T22:07:08;0.73;;;0.73;;
38909;SDS011;24676;51.360;12.354;2023-08-31T22:09:52;2.67;;;0.80;;
38909;SDS011;24676;51.360;12.354;2023-08-31T22:12:38;1.30;;;1.20;;
38909;SDS011;24676;51.360;12.354;2023-08-31T22:15:23;0.60;;;0.60;;
38909;SDS011;24676;51.360;12.354;2023-08-31T22:18:08;0.35;;;0.35;;
38909;SDS011;24676;51.360;12.354;2023-08-31T22:20:53;3.20;;;1.70;;